createdAt,value
2018-04-15T00:00:35.959Z,8.73
2018-04-15T00:03:03.490Z,8.81
2018-04-15T00:05:32.118Z,8.90
2018-04-15T00:08:01.175Z,8.98
2018-04-15T00:10:28.709Z,9.06
2018-04-15T00:12:56.817Z,9.07
2018-04-15T00:15:25.128Z,9.06
2018-04-15T00:17:52.659Z,9.02
2018-04-15T00:20:20.195Z,9.05
2018-04-15T00:22:47.804Z,9.11
2018-04-15T00:25:16.133Z,9.18
2018-04-15T00:27:43.664Z,9.24
2018-04-15T00:30:11.191Z,9.31
2018-04-15T00:32:38.968Z,9.33
2018-04-15T00:35:06.498Z,9.34
2018-04-15T00:37:34.669Z,9.39
2018-04-15T00:40:02.201Z,9.39
2018-04-15T00:42:29.889Z,9.43
2018-04-15T00:44:58.560Z,9.42
2018-04-15T00:47:26.114Z,9.42
2018-04-15T00:49:54.177Z,9.37
2018-04-15T00:52:21.747Z,9.31
2018-04-15T00:54:49.295Z,9.30
2018-04-15T00:57:16.859Z,9.30
2018-04-15T00:59:45.258Z,9.30
2018-04-15T01:02:12.794Z,9.28
2018-04-15T01:04:40.362Z,9.26
2018-04-15T01:07:09.670Z,9.23
2018-04-15T01:09:38.059Z,9.22
2018-04-15T01:12:06.334Z,9.25
2018-04-15T01:14:34.471Z,9.25
2018-04-15T01:17:01.990Z,9.27
2018-04-15T01:19:29.554Z,9.29
2018-04-15T01:21:58.102Z,9.29
2018-04-15T01:24:25.639Z,9.29
2018-04-15T01:26:53.162Z,9.28
2018-04-15T01:29:20.735Z,9.27
2018-04-15T01:31:48.266Z,9.22
2018-04-15T01:34:16.635Z,9.16
2018-04-15T01:36:44.201Z,9.17
2018-04-15T01:39:12.229Z,9.18
2018-04-15T01:41:39.792Z,9.16
2018-04-15T01:44:08.424Z,9.18
2018-04-15T01:46:35.953Z,9.20
2018-04-15T01:49:04.566Z,9.25
2018-04-15T01:51:32.126Z,9.28
2018-04-15T01:53:59.654Z,9.32
2018-04-15T01:56:27.846Z,9.36
2018-04-15T01:58:55.408Z,9.36
2018-04-15T02:01:23.390Z,9.39
2018-04-15T02:03:50.936Z,9.43
2018-04-15T02:06:19.287Z,9.47
2018-04-15T02:08:47.470Z,9.50
2018-04-15T02:11:15.726Z,9.52
2018-04-15T02:13:43.938Z,9.49
2018-04-15T02:16:11.518Z,9.48
2018-04-15T02:18:39.274Z,9.51
2018-04-15T02:21:07.333Z,9.54
2018-04-15T02:23:34.904Z,9.58
2018-04-15T02:26:02.436Z,9.61
2018-04-15T02:28:30.017Z,9.63
2018-04-15T02:30:57.573Z,9.65
2018-04-15T02:33:25.210Z,9.57
2018-04-15T02:35:52.806Z,9.48
2018-04-15T02:38:21.322Z,9.44
2018-04-15T02:40:48.866Z,9.44
2018-04-15T02:43:16.402Z,9.41
2018-04-15T02:45:44.473Z,9.39
2018-04-15T02:48:12.819Z,9.36
2018-04-15T02:50:40.369Z,9.35
2018-04-15T02:53:07.984Z,9.36
2018-04-15T02:55:35.581Z,9.38
2018-04-15T02:58:03.142Z,9.38
2018-04-15T03:00:31.473Z,9.38
2018-04-15T03:02:59.018Z,9.36
2018-04-15T03:05:27.117Z,9.38
2018-04-15T03:07:54.660Z,9.39
2018-04-15T03:10:22.219Z,9.37
2018-04-15T03:12:50.478Z,9.35
2018-04-15T03:15:18.482Z,9.28
2018-04-15T03:17:46.818Z,9.25
2018-04-15T03:20:14.353Z,9.21
2018-04-15T03:22:42.650Z,9.21
2018-04-15T03:25:10.186Z,9.21
2018-04-15T03:27:37.930Z,9.20
2018-04-15T03:30:05.503Z,9.21
2018-04-15T03:32:33.032Z,9.20
2018-04-15T03:35:00.555Z,9.18
2018-04-15T03:37:29.185Z,9.19
2018-04-15T03:39:56.746Z,9.24
2018-04-15T03:42:25.059Z,9.26
2018-04-15T03:44:53.371Z,9.27
2018-04-15T03:47:20.929Z,9.24
2018-04-15T03:49:49.291Z,9.22
2018-04-15T03:52:16.831Z,9.19
2018-04-15T03:54:44.381Z,9.17
2018-04-15T03:57:11.950Z,9.18
2018-04-15T03:59:39.863Z,9.22
2018-04-15T04:02:07.897Z,9.21
2018-04-15T04:04:35.487Z,9.20
2018-04-15T04:07:03.623Z,9.17
2018-04-15T04:09:31.177Z,9.18
2018-04-15T04:11:59.296Z,9.25
2018-04-15T04:14:27.735Z,9.25
2018-04-15T04:16:55.259Z,9.24
2018-04-15T04:19:34.690Z,9.18
2018-04-15T04:22:15.231Z,9.09
2018-04-15T04:24:55.390Z,9.01
2018-04-15T04:27:22.966Z,8.93
2018-04-15T04:29:50.499Z,8.91
2018-04-15T04:32:18.026Z,8.93
2018-04-15T04:34:45.586Z,8.93
2018-04-15T04:37:13.140Z,8.97
2018-04-15T04:39:41.534Z,9.02
2018-04-15T04:42:09.959Z,9.06
2018-04-15T04:44:38.434Z,9.02
2018-04-15T04:47:05.961Z,8.90
2018-04-15T04:49:34.230Z,8.84
2018-04-15T04:52:01.778Z,8.83
2018-04-15T04:54:29.320Z,8.89
2018-04-15T04:56:56.875Z,8.98
2018-04-15T04:59:24.406Z,9.08
2018-04-15T05:01:52.503Z,9.18
2018-04-15T05:04:20.050Z,9.27
2018-04-15T05:06:48.134Z,9.37
2018-04-15T05:09:15.670Z,9.44
2018-04-15T05:11:44.310Z,9.49
2018-04-15T05:14:12.493Z,9.52
2018-04-15T05:16:40.035Z,9.51
2018-04-15T05:19:07.736Z,9.52
2018-04-15T05:21:35.770Z,9.53
2018-04-15T05:24:03.298Z,9.51
2018-04-15T05:26:31.752Z,9.48
2018-04-15T05:28:59.304Z,9.42
2018-04-15T05:31:26.837Z,9.34
2018-04-15T05:33:54.404Z,9.20
2018-04-15T05:36:21.954Z,9.12
2018-04-15T05:38:50.276Z,9.06
2018-04-15T05:41:17.806Z,9.04
2018-04-15T05:43:46.062Z,9.03
2018-04-15T05:46:14.237Z,9.01
2018-04-15T05:48:43.160Z,8.90
2018-04-15T05:51:10.698Z,8.86
2018-04-15T05:53:38.612Z,8.85
2018-04-15T05:56:06.187Z,8.77
2018-04-15T05:58:33.727Z,8.71
2018-04-15T06:01:02.042Z,8.70
2018-04-15T06:03:29.581Z,8.72
2018-04-15T06:05:57.875Z,8.79
2018-04-15T06:08:25.475Z,8.86
2018-04-15T06:10:54.218Z,8.94
2018-04-15T06:13:22.589Z,9.05
2018-04-15T06:15:50.647Z,9.12
2018-04-15T06:18:18.180Z,9.20
2018-04-15T06:20:45.703Z,9.24
2018-04-15T06:23:14.113Z,9.25
2018-04-15T06:25:41.652Z,9.25
2018-04-15T06:28:09.243Z,9.26
2018-04-15T06:30:37.706Z,9.27
2018-04-15T06:33:05.350Z,9.34
2018-04-15T06:35:32.882Z,9.34
2018-04-15T06:38:00.833Z,9.32
2018-04-15T06:40:28.360Z,9.37
2018-04-15T06:42:55.901Z,9.41
2018-04-15T06:45:24.015Z,9.52
2018-04-15T06:47:52.209Z,9.52
2018-04-15T06:50:19.755Z,9.44
2018-04-15T06:52:47.307Z,9.39
2018-04-15T06:55:14.868Z,9.41
2018-04-15T06:57:42.401Z,9.32
2018-04-15T07:00:10.614Z,9.27
2018-04-15T07:02:38.402Z,9.28
2018-04-15T07:05:05.934Z,9.26
2018-04-15T07:07:34.190Z,9.17
2018-04-15T07:10:01.731Z,9.15
2018-04-15T07:12:29.855Z,9.17
2018-04-15T07:14:57.905Z,9.14
2018-04-15T07:17:25.439Z,9.11
2018-04-15T07:19:52.968Z,9.12
2018-04-15T07:22:21.374Z,9.17
2018-04-15T07:24:48.918Z,9.22
2018-04-15T07:27:16.451Z,9.33
2018-04-15T07:29:44.014Z,9.36
2018-04-15T07:32:11.546Z,9.43
2018-04-15T07:34:39.175Z,9.47
2018-04-15T07:37:06.842Z,9.51
2018-04-15T07:39:35.592Z,9.58
2018-04-15T07:42:03.159Z,9.66
2018-04-15T07:44:31.215Z,9.65
2018-04-15T07:46:58.755Z,9.65
2018-04-15T07:49:26.846Z,9.69
2018-04-15T07:51:54.415Z,9.76
2018-04-15T07:54:21.951Z,9.87
2018-04-15T07:56:49.508Z,9.95
2018-04-15T07:59:17.064Z,10.03
2018-04-15T08:01:45.835Z,10.07
2018-04-15T08:04:13.386Z,10.07
2018-04-15T08:06:41.606Z,10.15
2018-04-15T08:09:09.176Z,10.26
2018-04-15T08:11:37.660Z,10.36
2018-04-15T08:14:05.896Z,10.47
2018-04-15T08:16:33.435Z,10.58
2018-04-15T08:19:00.978Z,10.70
2018-04-15T08:21:29.417Z,10.88
2018-04-15T08:23:57.210Z,11.10
2018-04-15T08:26:24.748Z,11.22
2018-04-15T08:28:52.307Z,11.33
2018-04-15T08:31:20.685Z,11.42
2018-04-15T08:33:48.221Z,11.41
2018-04-15T08:36:15.763Z,11.43
2018-04-15T08:38:43.907Z,11.57
2018-04-15T08:41:11.436Z,11.79
2018-04-15T08:43:39.916Z,12.06
2018-04-15T08:46:08.497Z,12.34
2018-04-15T08:48:36.637Z,12.59
2018-04-15T08:51:04.234Z,12.70
2018-04-15T08:53:31.776Z,12.75
2018-04-15T08:55:59.952Z,12.69
2018-04-15T08:58:27.496Z,12.82
2018-04-15T09:00:55.720Z,12.96
2018-04-15T09:03:23.980Z,13.05
2018-04-15T09:05:52.126Z,13.11
2018-04-15T09:08:19.731Z,13.27
2018-04-15T09:10:47.915Z,13.52
2018-04-15T09:13:15.801Z,13.78
2018-04-15T09:15:44.133Z,14.07
2018-04-15T09:18:11.681Z,14.26
2018-04-15T09:20:39.247Z,15.04
2018-04-15T09:23:07.733Z,15.53
2018-04-15T09:25:35.285Z,15.61
2018-04-15T09:28:02.847Z,15.57
2018-04-15T09:30:30.462Z,15.43
2018-04-15T09:32:58.063Z,15.42
2018-04-15T09:35:25.622Z,15.29
2018-04-15T09:37:53.756Z,15.13
2018-04-15T09:40:21.316Z,14.94
2018-04-15T09:42:48.858Z,14.79
2018-04-15T09:45:17.147Z,14.69
2018-04-15T09:47:45.127Z,14.59
2018-04-15T09:50:12.670Z,14.48
2018-04-15T09:52:40.237Z,14.39
2018-04-15T09:55:08.249Z,14.37
2018-04-15T09:57:35.794Z,14.36
2018-04-15T10:00:04.237Z,14.48
2018-04-15T10:02:31.823Z,14.64
2018-04-15T10:04:59.362Z,14.73
2018-04-15T10:07:27.923Z,14.81
2018-04-15T10:09:56.118Z,14.85
2018-04-15T10:12:25.501Z,14.92
2018-04-15T10:14:54.390Z,15.14
2018-04-15T10:17:21.944Z,15.36
2018-04-15T10:19:49.473Z,15.57
2018-04-15T10:22:17.749Z,15.80
2018-04-15T10:24:45.284Z,15.96
2018-04-15T10:27:12.843Z,16.13
2018-04-15T10:29:40.414Z,16.24
2018-04-15T10:32:08.248Z,16.33
2018-04-15T10:34:35.890Z,16.43
2018-04-15T10:37:03.486Z,16.59
2018-04-15T10:39:31.999Z,16.58
2018-04-15T10:42:00.147Z,16.53
2018-04-15T10:44:28.252Z,16.42
2018-04-15T10:46:55.791Z,16.39
2018-04-15T10:49:23.741Z,16.27
2018-04-15T10:51:51.278Z,16.18
2018-04-15T10:54:18.812Z,15.96
2018-04-15T10:56:46.386Z,15.80
2018-04-15T10:59:14.502Z,15.64
2018-04-15T11:01:42.601Z,15.33
2018-04-15T11:04:10.151Z,15.09
2018-04-15T11:06:38.505Z,14.84
2018-04-15T11:09:07.257Z,14.77
2018-04-15T11:11:35.394Z,14.78
2018-04-15T11:14:03.702Z,14.81
2018-04-15T11:16:31.211Z,14.93
2018-04-15T11:18:58.768Z,14.91
2018-04-15T11:21:28.410Z,14.93
2018-04-15T11:23:55.945Z,14.98
2018-04-15T11:26:23.484Z,15.06
2018-04-15T11:28:51.118Z,15.15
2018-04-15T11:31:18.647Z,15.32
2018-04-15T11:33:46.200Z,15.46
2018-04-15T11:36:13.786Z,15.66
2018-04-15T11:38:42.791Z,15.84
2018-04-15T11:41:10.333Z,15.85
2018-04-15T11:43:39.150Z,15.90
2018-04-15T11:46:07.587Z,16.02
2018-04-15T11:48:35.787Z,16.20
2018-04-15T11:51:03.319Z,16.34
2018-04-15T11:53:30.883Z,16.45
2018-04-15T11:55:59.139Z,16.51
2018-04-15T11:58:26.692Z,16.59
2018-04-15T12:00:54.920Z,16.69
2018-04-15T12:03:22.594Z,16.76
2018-04-15T12:05:50.812Z,16.87
2018-04-15T12:08:18.361Z,16.97
2018-04-15T12:10:46.758Z,17.06
2018-04-15T12:13:14.825Z,17.03
2018-04-15T12:15:43.235Z,16.88
2018-04-15T12:18:11.007Z,16.82
2018-04-15T12:20:38.665Z,16.69
2018-04-15T12:23:07.050Z,16.52
2018-04-15T12:25:34.624Z,16.46
2018-04-15T12:28:02.823Z,16.32
2018-04-15T12:30:30.370Z,16.20
2018-04-15T12:32:57.899Z,16.11
2018-04-15T12:35:25.460Z,16.09
2018-04-15T12:37:52.995Z,16.07
2018-04-15T12:40:20.530Z,15.92
2018-04-15T12:42:48.101Z,15.79
2018-04-15T12:45:16.524Z,15.64
2018-04-15T12:47:45.171Z,15.58
2018-04-15T12:50:12.715Z,15.53
2018-04-15T12:52:40.924Z,15.50
2018-04-15T12:55:09.529Z,15.38
2018-04-15T12:57:37.468Z,15.33
2018-04-15T13:00:05.651Z,15.20
2018-04-15T13:02:33.215Z,15.15
2018-04-15T13:05:00.770Z,15.05
2018-04-15T13:07:28.753Z,14.99
2018-04-15T13:09:56.343Z,14.94
2018-04-15T13:12:24.784Z,14.91
2018-04-15T13:14:52.937Z,14.78
2018-04-15T13:17:20.501Z,14.70
2018-04-15T13:19:48.081Z,14.64
2018-04-15T13:22:16.059Z,14.58
2018-04-15T13:24:43.583Z,14.52
2018-04-15T13:27:11.142Z,14.50
2018-04-15T13:29:39.092Z,14.44
2018-04-15T13:32:06.734Z,14.41
2018-04-15T13:34:34.337Z,14.33
2018-04-15T13:37:01.975Z,14.27
2018-04-15T13:39:30.360Z,14.23
2018-04-15T13:41:57.911Z,14.18
2018-04-15T13:44:26.165Z,14.13
2018-04-15T13:46:53.749Z,14.05
2018-04-15T13:49:21.968Z,13.96
2018-04-15T13:51:50.084Z,13.94
2018-04-15T13:54:17.703Z,13.92
2018-04-15T13:56:45.289Z,13.91
2018-04-15T13:59:12.956Z,13.97
2018-04-15T14:01:41.028Z,14.03
2018-04-15T14:04:08.688Z,14.07
2018-04-15T14:06:37.341Z,14.08
2018-04-15T14:09:04.971Z,14.04
2018-04-15T14:11:33.202Z,14.03
2018-04-15T14:14:01.298Z,14.01
2018-04-15T14:16:28.903Z,14.01
2018-04-15T14:18:56.482Z,14.00
2018-04-15T14:21:24.676Z,13.99
2018-04-15T14:23:52.227Z,13.98
2018-04-15T14:26:19.827Z,13.99
2018-04-15T14:28:47.428Z,13.96
2018-04-15T14:31:15.039Z,13.98
2018-04-15T14:33:42.620Z,13.99
2018-04-15T14:36:10.232Z,14.00
2018-04-15T14:38:38.154Z,14.00
2018-04-15T14:41:05.698Z,14.00
2018-04-15T14:43:33.974Z,13.93
2018-04-15T14:46:02.134Z,13.83
2018-04-15T14:48:30.554Z,13.80
2018-04-15T14:50:58.150Z,13.82
2018-04-15T14:53:25.706Z,13.81
2018-04-15T14:55:53.583Z,13.73
2018-04-15T14:58:21.137Z,13.67
2018-04-15T15:00:49.343Z,13.70
2018-04-15T15:03:16.905Z,13.69
2018-04-15T15:05:44.904Z,13.64
2018-04-15T15:08:12.473Z,13.61
2018-04-15T15:10:40.465Z,13.58
2018-04-15T15:13:09.068Z,13.55
2018-04-15T15:15:37.906Z,13.51
2018-04-15T15:18:05.473Z,13.48
2018-04-15T15:20:33.034Z,13.48
2018-04-15T15:23:02.048Z,13.47
2018-04-15T15:25:29.634Z,13.48
2018-04-15T15:27:57.239Z,13.50
2018-04-15T15:30:24.844Z,13.53
2018-04-15T15:32:52.421Z,13.52
2018-04-15T15:35:20.000Z,13.49
2018-04-15T15:37:47.584Z,13.47
2018-04-15T15:40:15.208Z,13.47
2018-04-15T15:45:25.692Z,13.37
2018-04-15T15:47:54.135Z,13.34
2018-04-15T15:50:21.678Z,13.27
2018-04-15T15:52:49.248Z,13.17
2018-04-15T15:55:16.814Z,13.10
2018-04-15T15:57:44.931Z,13.00
2018-04-15T16:00:13.184Z,12.95
2018-04-15T16:02:40.721Z,12.97
2018-04-15T16:05:09.030Z,12.99
2018-04-15T16:07:37.441Z,12.99
2018-04-15T16:10:05.051Z,13.04
2018-04-15T16:12:33.253Z,13.05
2018-04-15T16:15:01.433Z,13.03
2018-04-15T16:17:29.074Z,13.04
2018-04-15T16:19:56.647Z,13.07
2018-04-15T16:22:24.654Z,13.07
2018-04-15T16:24:52.206Z,13.08
2018-04-15T16:27:19.749Z,13.04
2018-04-15T16:29:47.308Z,13.03
2018-04-15T16:32:14.868Z,13.04
2018-04-15T16:34:42.405Z,13.05
2018-04-15T16:37:09.982Z,13.02
2018-04-15T16:39:37.863Z,13.03
2018-04-15T16:42:05.411Z,13.05
2018-04-15T16:44:34.046Z,13.01
2018-04-15T16:47:01.599Z,13.00
2018-04-15T16:49:30.010Z,13.02
2018-04-15T16:51:57.560Z,13.01
2018-04-15T16:54:25.154Z,12.96
2018-04-15T16:56:52.743Z,12.93
2018-04-15T16:59:20.284Z,12.91
2018-04-15T17:01:48.371Z,12.91
2018-04-15T17:04:15.918Z,12.89
2018-04-15T17:06:44.244Z,12.90
2018-04-15T17:09:11.779Z,12.91
2018-04-15T17:11:40.399Z,12.93
2018-04-15T17:14:08.964Z,12.93
2018-04-15T17:16:36.910Z,12.94
2018-04-15T17:19:05.240Z,12.92
2018-04-15T17:21:33.351Z,12.86
2018-04-15T17:24:00.885Z,12.80
2018-04-15T17:26:28.447Z,12.76
2018-04-15T17:28:56.022Z,12.71
2018-04-15T17:31:23.574Z,12.61
2018-04-15T17:33:51.200Z,12.55
2018-04-15T17:36:18.808Z,12.51
2018-04-15T17:38:46.350Z,12.49
2018-04-15T17:41:14.721Z,12.46
2018-04-15T17:43:42.941Z,12.39
2018-04-15T17:46:11.511Z,12.36
2018-04-15T17:48:39.866Z,12.30
2018-04-15T17:51:07.830Z,12.28
2018-04-15T17:53:35.388Z,12.23
2018-04-15T17:56:02.967Z,12.19
2018-04-15T17:58:30.530Z,12.17
2018-04-15T18:00:58.683Z,12.14
2018-04-15T18:03:26.236Z,12.11
2018-04-15T18:05:54.429Z,12.09
2018-04-15T18:08:21.976Z,12.10
2018-04-15T18:10:50.094Z,12.10
2018-04-15T18:13:18.216Z,12.09
2018-04-15T18:15:46.459Z,12.06
2018-04-15T18:18:14.026Z,12.07
2018-04-15T18:20:41.605Z,12.06
2018-04-15T18:23:09.809Z,12.06
2018-04-15T18:25:38.208Z,12.05
2018-04-15T18:28:05.817Z,12.04
2018-04-15T18:30:33.396Z,12.05
2018-04-15T18:33:00.991Z,12.05
2018-04-15T18:35:28.546Z,12.07
2018-04-15T18:37:56.084Z,12.07
2018-04-15T18:40:24.293Z,12.10
2018-04-15T18:42:51.840Z,12.11
2018-04-15T18:45:20.116Z,12.11
2018-04-15T18:47:48.374Z,12.12
2018-04-15T18:50:15.972Z,12.12
2018-04-15T18:52:43.491Z,12.10
2018-04-15T18:55:11.059Z,12.11
2018-04-15T18:57:39.130Z,12.10
2018-04-15T19:00:07.866Z,12.12
2018-04-15T19:02:35.431Z,12.12
2018-04-15T19:05:02.963Z,12.12
2018-04-15T19:07:30.948Z,12.16
2018-04-15T19:09:58.484Z,12.19
2018-04-15T19:12:27.131Z,12.19
2018-04-15T19:14:55.287Z,12.17
2018-04-15T19:17:22.824Z,12.14
2018-04-15T19:19:50.383Z,12.13
2018-04-15T19:22:18.704Z,12.12
2018-04-15T19:24:46.303Z,12.14
2018-04-15T19:27:14.532Z,12.14
2018-04-15T19:29:42.086Z,12.15
2018-04-15T19:32:10.052Z,12.17
2018-04-15T19:34:37.719Z,12.17
2018-04-15T19:37:06.023Z,12.18
2018-04-15T19:39:33.574Z,12.17
2018-04-15T19:42:01.128Z,12.16
2018-04-15T19:44:29.364Z,12.18
2018-04-15T19:46:56.919Z,12.19
2018-04-15T19:49:25.248Z,12.20
2018-04-15T19:51:52.818Z,12.19
2018-04-15T19:54:20.386Z,12.20
2018-04-15T19:56:47.971Z,12.18
2018-04-15T19:59:15.531Z,12.20
2018-04-15T20:01:43.716Z,12.19
2018-04-15T20:04:11.255Z,12.19
2018-04-15T20:06:40.068Z,12.16
2018-04-15T20:09:07.818Z,12.16
2018-04-15T20:11:35.998Z,12.16
2018-04-15T20:14:04.183Z,12.17
2018-04-15T20:16:31.751Z,12.17
2018-04-15T20:18:59.308Z,12.16
2018-04-15T20:21:27.518Z,12.11
2018-04-15T20:23:55.070Z,12.07
2018-04-15T20:26:22.611Z,12.03
2018-04-15T20:28:50.210Z,12.04
2018-04-15T20:31:17.739Z,12.04
2018-04-15T20:33:46.041Z,12.05
2018-04-15T20:36:14.470Z,12.01
2018-04-15T20:38:42.122Z,12.02
2018-04-15T20:41:09.673Z,12.02
2018-04-15T20:43:38.330Z,12.03
2018-04-15T20:46:07.098Z,12.04
2018-04-15T20:48:35.423Z,12.04
2018-04-15T20:51:02.985Z,12.05
2018-04-15T20:53:30.519Z,12.03
2018-04-15T20:55:58.125Z,12.01
2018-04-15T20:58:25.660Z,12.01
2018-04-15T21:00:53.939Z,12.01
2018-04-15T21:03:21.503Z,12.01
2018-04-15T21:05:50.321Z,11.99
2018-04-15T21:08:17.855Z,11.98
2018-04-15T21:10:46.028Z,11.96
2018-04-15T21:13:14.363Z,11.95
2018-04-15T21:15:42.510Z,11.94
2018-04-15T21:18:10.061Z,11.95
2018-04-15T21:20:38.286Z,11.95
2018-04-15T21:23:07.153Z,11.95
2018-04-15T21:25:34.698Z,11.95
2018-04-15T21:28:02.257Z,11.94
2018-04-15T21:30:29.835Z,11.94
2018-04-15T21:32:58.367Z,11.93
2018-04-15T21:35:25.926Z,11.91
2018-04-15T21:37:53.495Z,11.90
2018-04-15T21:40:21.558Z,11.88
2018-04-15T21:42:49.118Z,11.88
2018-04-15T21:45:17.520Z,11.88
2018-04-15T21:47:45.924Z,11.88
2018-04-15T21:50:13.515Z,11.87
2018-04-15T21:52:41.069Z,11.87
2018-04-15T21:55:08.997Z,11.88
2018-04-15T21:57:36.572Z,11.88
2018-04-15T22:00:04.171Z,11.87
2018-04-15T22:02:31.741Z,11.87
2018-04-15T22:04:59.310Z,11.86
2018-04-15T22:07:27.401Z,11.83
2018-04-15T22:09:54.954Z,11.81
2018-04-15T22:12:23.233Z,11.81
2018-04-15T22:14:51.477Z,11.79
2018-04-15T22:17:19.028Z,11.75
2018-04-15T22:19:46.607Z,11.73
2018-04-15T22:22:14.711Z,11.72
2018-04-15T22:24:42.306Z,11.70
2018-04-15T22:27:09.906Z,11.68
2018-04-15T22:29:39.291Z,11.67
2018-04-15T22:32:07.530Z,11.65
2018-04-15T22:34:35.047Z,11.62
2018-04-15T22:37:03.016Z,11.59
2018-04-15T22:39:31.286Z,11.54
2018-04-15T22:41:58.815Z,11.48
2018-04-15T22:44:27.114Z,11.39
2018-04-15T22:46:54.651Z,11.30
2018-04-15T22:49:23.630Z,11.23
2018-04-15T22:51:51.173Z,11.18
2018-04-15T22:54:18.711Z,11.14
2018-04-15T22:56:47.058Z,11.11
2018-04-15T22:59:14.624Z,11.05
2018-04-15T23:01:42.204Z,11.04
2018-04-15T23:04:10.024Z,11.00
2018-04-15T23:06:39.170Z,10.93
2018-04-15T23:09:06.833Z,10.91
2018-04-15T23:11:34.914Z,10.87
2018-04-15T23:14:03.492Z,10.83
2018-04-15T23:16:31.065Z,10.83
2018-04-15T23:18:58.623Z,10.85
2018-04-15T23:21:27.159Z,10.87
2018-04-15T23:23:54.751Z,10.86
2018-04-15T23:26:23.010Z,10.88
2018-04-15T23:28:50.530Z,10.89
2018-04-15T23:31:18.068Z,10.90
2018-04-15T23:33:45.626Z,10.90
2018-04-15T23:36:13.187Z,10.91
2018-04-15T23:38:41.299Z,10.90
2018-04-15T23:41:09.007Z,10.92
2018-04-15T23:43:38.148Z,10.90
2018-04-15T23:46:06.574Z,10.87
2018-04-15T23:48:34.821Z,10.85
2018-04-15T23:51:02.366Z,10.84
2018-04-15T23:53:29.902Z,10.84
2018-04-15T23:55:57.458Z,10.86
2018-04-15T23:58:25.014Z,10.88
